sensor_id;sensor_type;location;lat;lon;timestamp;temperature;humidity
10042;DHT22;5061;49.068;12.058;2023-04-16T00:00:29;6.70;99.90
10042;DHT22;5061;49.068;12.058;2023-04-16T00:03:50;6.60;99.90
10042;DHT22;5061;49.068;12.058;2023-04-16T00:07:10;6.60;99.90
10042;DHT22;5061;49.068;12.058;2023-04-16T00:10:31;6.60;99.90
10042;DHT22;5061;49.068;12.058;2023-04-16T00:13:52;6.60;99.90
10042;DHT22;5061;49.068;12.058;2023-04-16T00:17:12;6.70;99.90
10042;DHT22;5061;49.068;12.058;2023-04-16T00:20:33;6.60;99.90
10042;DHT22;5061;49.068;12.058;2023-04-16T00:23:53;6.60;99.90
10042;DHT22;5061;49.068;12.058;2023-04-16T00:27:14;6.70;99.90
10042;DHT22;5061;49.068;12.058;2023-04-16T00:30:35;6.70;99.90
10042;DHT22;5061;49.068;12.058;2023-04-16T00:33:56;6.70;99.90
10042;DHT22;5061;49.068;12.058;2023-04-16T00:37:17;6.70;99.90
10042;DHT22;5061;49.068;12.058;2023-04-16T00:40:38;6.70;99.90
10042;DHT22;5061;49.068;12.058;2023-04-16T00:43:58;6.70;99.90
10042;DHT22;5061;49.068;12.058;2023-04-16T00:47:20;6.70;99.90
10042;DHT22;5061;49.068;12.058;2023-04-16T00:50:41;6.70;99.90
10042;DHT22;5061;49.068;12.058;2023-04-16T00:54:02;6.70;99.90
10042;DHT22;5061;49.068;12.058;2023-04-16T00:57:22;6.70;99.90
10042;DHT22;5061;49.068;12.058;2023-04-16T01:00:43;6.70;99.90
10042;DHT22;5061;49.068;12.058;2023-04-16T01:04:04;6.60;99.90
10042;DHT22;5061;49.068;12.058;2023-04-16T01:07:26;6.60;99.90
10042;DHT22;5061;49.068;12.058;2023-04-16T01:10:46;6.60;99.90
10042;DHT22;5061;49.068;12.058;2023-04-16T01:14:07;6.60;99.90
10042;DHT22;5061;49.068;12.058;2023-04-16T01:17:28;6.60;99.90
10042;DHT22;5061;49.068;12.058;2023-04-16T01:20:49;6.60;99.90
10042;DHT22;5061;49.068;12.058;2023-04-16T01:24:10;6.60;99.90
10042;DHT22;5061;49.068;12.058;2023-04-16T01:27:30;6.60;99.90
10042;DHT22;5061;49.068;12.058;2023-04-16T01:30:51;6.60;99.90
10042;DHT22;5061;49.068;12.058;2023-04-16T01:34:12;6.60;99.90
10042;DHT22;5061;49.068;12.058;2023-04-16T01:37:33;6.60;99.90
10042;DHT22;5061;49.068;12.058;2023-04-16T01:40:56;6.60;99.90
10042;DHT22;5061;49.068;12.058;2023-04-16T01:44:18;6.60;99.90
10042;DHT22;5061;49.068;12.058;2023-04-16T01:47:39;6.60;99.90
10042;DHT22;5061;49.068;12.058;2023-04-16T01:51:00;6.70;99.90
10042;DHT22;5061;49.068;12.058;2023-04-16T01:54:20;6.70;99.90
10042;DHT22;5061;49.068;12.058;2023-04-16T01:57:41;6.70;99.90
10042;DHT22;5061;49.068;12.058;2023-04-16T02:01:02;6.70;99.90
10042;DHT22;5061;49.068;12.058;2023-04-16T02:04:25;6.70;99.90
10042;DHT22;5061;49.068;12.058;2023-04-16T02:07:45;6.60;99.90
10042;DHT22;5061;49.068;12.058;2023-04-16T02:11:06;6.60;99.90
10042;DHT22;5061;49.068;12.058;2023-04-16T02:14:27;6.60;99.90
10042;DHT22;5061;49.068;12.058;2023-04-16T02:17:47;6.60;99.90
10042;DHT22;5061;49.068;12.058;2023-04-16T02:21:13;6.60;99.90
10042;DHT22;5061;49.068;12.058;2023-04-16T02:24:33;6.70;99.90
10042;DHT22;5061;49.068;12.058;2023-04-16T02:27:54;6.70;99.90
10042;DHT22;5061;49.068;12.058;2023-04-16T02:31:14;6.70;99.90
10042;DHT22;5061;49.068;12.058;2023-04-16T02:34:38;6.70;99.90
10042;DHT22;5061;49.068;12.058;2023-04-16T02:38:00;6.70;99.90
10042;DHT22;5061;49.068;12.058;2023-04-16T02:41:20;6.80;99.90
10042;DHT22;5061;49.068;12.058;2023-04-16T02:44:41;6.80;99.90
10042;DHT22;5061;49.068;12.058;2023-04-16T02:48:02;6.80;99.90
10042;DHT22;5061;49.068;12.058;2023-04-16T02:51:22;6.80;99.90
10042;DHT22;5061;49.068;12.058;2023-04-16T02:54:43;6.80;99.90
10042;DHT22;5061;49.068;12.058;2023-04-16T02:58:04;6.80;99.90
10042;DHT22;5061;49.068;12.058;2023-04-16T03:01:24;6.80;99.90
10042;DHT22;5061;49.068;12.058;2023-04-16T03:04:45;6.90;99.90
10042;DHT22;5061;49.068;12.058;2023-04-16T03:08:06;6.90;99.90
10042;DHT22;5061;49.068;12.058;2023-04-16T03:11:27;6.90;99.90
10042;DHT22;5061;49.068;12.058;2023-04-16T03:14:49;6.90;99.90
10042;DHT22;5061;49.068;12.058;2023-04-16T03:18:11;6.90;99.90
10042;DHT22;5061;49.068;12.058;2023-04-16T03:21:32;6.90;99.90
10042;DHT22;5061;49.068;12.058;2023-04-16T03:24:53;6.90;99.90
10042;DHT22;5061;49.068;12.058;2023-04-16T03:28:13;6.90;99.90
10042;DHT22;5061;49.068;12.058;2023-04-16T03:31:34;6.90;99.90
10042;DHT22;5061;49.068;12.058;2023-04-16T03:34:55;6.90;99.90
10042;DHT22;5061;49.068;12.058;2023-04-16T03:38:15;6.90;99.90
10042;DHT22;5061;49.068;12.058;2023-04-16T03:41:36;6.90;99.90
10042;DHT22;5061;49.068;12.058;2023-04-16T03:44:56;6.90;99.90
10042;DHT22;5061;49.068;12.058;2023-04-16T03:48:17;6.90;99.90
10042;DHT22;5061;49.068;12.058;2023-04-16T03:51:37;6.90;99.90
10042;DHT22;5061;49.068;12.058;2023-04-16T03:54:58;7.00;99.90
10042;DHT22;5061;49.068;12.058;2023-04-16T03:58:19;6.90;99.90
10042;DHT22;5061;49.068;12.058;2023-04-16T04:01:39;6.90;99.90
10042;DHT22;5061;49.068;12.058;2023-04-16T04:05:00;6.90;99.90
10042;DHT22;5061;49.068;12.058;2023-04-16T04:08:21;6.90;99.90
10042;DHT22;5061;49.068;12.058;2023-04-16T04:11:42;6.90;99.90
10042;DHT22;5061;49.068;12.058;2023-04-16T04:15:02;6.90;99.90
10042;DHT22;5061;49.068;12.058;2023-04-16T04:18:23;6.90;99.90
10042;DHT22;5061;49.068;12.058;2023-04-16T04:21:44;6.90;99.90
10042;DHT22;5061;49.068;12.058;2023-04-16T04:25:05;6.90;99.90
10042;DHT22;5061;49.068;12.058;2023-04-16T04:28:25;6.90;99.90
10042;DHT22;5061;49.068;12.058;2023-04-16T04:31:46;6.90;99.90
10042;DHT22;5061;49.068;12.058;2023-04-16T04:35:07;6.90;99.90
10042;DHT22;5061;49.068;12.058;2023-04-16T04:38:28;6.90;99.90
10042;DHT22;5061;49.068;12.058;2023-04-16T04:41:49;6.90;99.90
10042;DHT22;5061;49.068;12.058;2023-04-16T04:45:10;6.90;99.90
10042;DHT22;5061;49.068;12.058;2023-04-16T04:48:31;7.00;99.90
10042;DHT22;5061;49.068;12.058;2023-04-16T04:51:51;7.00;99.90
10042;DHT22;5061;49.068;12.058;2023-04-16T04:55:13;7.00;99.90
10042;DHT22;5061;49.068;12.058;2023-04-16T04:58:35;7.00;99.90
10042;DHT22;5061;49.068;12.058;2023-04-16T05:01:55;7.00;99.90
10042;DHT22;5061;49.068;12.058;2023-04-16T05:05:16;7.10;99.90
10042;DHT22;5061;49.068;12.058;2023-04-16T05:08:37;7.10;99.90
10042;DHT22;5061;49.068;12.058;2023-04-16T05:11:57;7.20;99.90
10042;DHT22;5061;49.068;12.058;2023-04-16T05:15:18;7.20;99.90
10042;DHT22;5061;49.068;12.058;2023-04-16T05:18:39;7.20;99.90
10042;DHT22;5061;49.068;12.058;2023-04-16T05:21:59;7.20;99.90
10042;DHT22;5061;49.068;12.058;2023-04-16T05:25:21;7.20;99.90
10042;DHT22;5061;49.068;12.058;2023-04-16T05:28:42;7.30;99.90
10042;DHT22;5061;49.068;12.058;2023-04-16T05:32:03;7.30;99.90
10042;DHT22;5061;49.068;12.058;2023-04-16T05:35:23;7.30;99.90
10042;DHT22;5061;49.068;12.058;2023-04-16T05:38:44;7.30;99.90
10042;DHT22;5061;49.068;12.058;2023-04-16T05:42:05;7.40;99.90
10042;DHT22;5061;49.068;12.058;2023-04-16T05:45:25;7.40;99.90
10042;DHT22;5061;49.068;12.058;2023-04-16T05:48:46;7.40;99.90
10042;DHT22;5061;49.068;12.058;2023-04-16T05:52:07;7.50;99.90
10042;DHT22;5061;49.068;12.058;2023-04-16T05:55:27;7.50;99.90
10042;DHT22;5061;49.068;12.058;2023-04-16T05:58:48;7.60;99.90
10042;DHT22;5061;49.068;12.058;2023-04-16T06:02:09;7.60;99.90
10042;DHT22;5061;49.068;12.058;2023-04-16T06:05:29;7.60;99.90
10042;DHT22;5061;49.068;12.058;2023-04-16T06:08:50;7.60;99.90
10042;DHT22;5061;49.068;12.058;2023-04-16T06:12:11;7.70;99.90
10042;DHT22;5061;49.068;12.058;2023-04-16T06:15:31;7.80;99.90
10042;DHT22;5061;49.068;12.058;2023-04-16T06:18:52;7.80;99.90
10042;DHT22;5061;49.068;12.058;2023-04-16T06:22:13;7.90;99.90
10042;DHT22;5061;49.068;12.058;2023-04-16T06:25:33;7.90;99.90
10042;DHT22;5061;49.068;12.058;2023-04-16T06:28:54;8.10;99.90
10042;DHT22;5061;49.068;12.058;2023-04-16T06:32:15;8.10;99.90
10042;DHT22;5061;49.068;12.058;2023-04-16T06:35:36;8.20;99.90
10042;DHT22;5061;49.068;12.058;2023-04-16T06:38:57;8.20;99.90
10042;DHT22;5061;49.068;12.058;2023-04-16T06:42:18;8.30;99.90
10042;DHT22;5061;49.068;12.058;2023-04-16T06:45:39;8.40;99.90
10042;DHT22;5061;49.068;12.058;2023-04-16T06:49:00;8.40;99.90
10042;DHT22;5061;49.068;12.058;2023-04-16T06:52:20;8.50;99.90
10042;DHT22;5061;49.068;12.058;2023-04-16T06:55:41;8.50;99.90
10042;DHT22;5061;49.068;12.058;2023-04-16T06:59:02;8.60;99.90
10042;DHT22;5061;49.068;12.058;2023-04-16T07:02:23;8.60;99.90
10042;DHT22;5061;49.068;12.058;2023-04-16T07:05:44;8.60;99.90
10042;DHT22;5061;49.068;12.058;2023-04-16T07:09:04;8.70;99.90
10042;DHT22;5061;49.068;12.058;2023-04-16T07:12:25;8.70;99.90
10042;DHT22;5061;49.068;12.058;2023-04-16T07:15:46;8.80;99.90
10042;DHT22;5061;49.068;12.058;2023-04-16T07:19:07;8.80;99.90
10042;DHT22;5061;49.068;12.058;2023-04-16T07:22:28;8.90;99.90
10042;DHT22;5061;49.068;12.058;2023-04-16T07:25:48;8.90;99.90
10042;DHT22;5061;49.068;12.058;2023-04-16T07:29:09;9.00;99.90
10042;DHT22;5061;49.068;12.058;2023-04-16T07:32:30;9.20;99.90
10042;DHT22;5061;49.068;12.058;2023-04-16T07:35:51;9.30;99.90
10042;DHT22;5061;49.068;12.058;2023-04-16T07:39:11;9.40;99.90
10042;DHT22;5061;49.068;12.058;2023-04-16T07:42:32;9.50;99.90
10042;DHT22;5061;49.068;12.058;2023-04-16T07:45:53;9.50;99.90
10042;DHT22;5061;49.068;12.058;2023-04-16T07:49:14;9.60;99.90
10042;DHT22;5061;49.068;12.058;2023-04-16T07:52:34;9.60;99.90
10042;DHT22;5061;49.068;12.058;2023-04-16T07:55:56;9.70;99.90
10042;DHT22;5061;49.068;12.058;2023-04-16T07:59:17;9.70;99.90
10042;DHT22;5061;49.068;12.058;2023-04-16T08:02:38;9.70;99.90
10042;DHT22;5061;49.068;12.058;2023-04-16T08:05:59;9.80;99.90
10042;DHT22;5061;49.068;12.058;2023-04-16T08:09:22;9.80;99.90
10042;DHT22;5061;49.068;12.058;2023-04-16T08:12:43;9.80;99.90
10042;DHT22;5061;49.068;12.058;2023-04-16T08:16:04;9.80;99.90
10042;DHT22;5061;49.068;12.058;2023-04-16T08:19:25;9.80;99.90
10042;DHT22;5061;49.068;12.058;2023-04-16T08:22:46;9.80;99.90
10042;DHT22;5061;49.068;12.058;2023-04-16T08:26:12;9.80;99.90
10042;DHT22;5061;49.068;12.058;2023-04-16T08:29:37;9.80;99.90
10042;DHT22;5061;49.068;12.058;2023-04-16T08:32:58;9.80;99.90
10042;DHT22;5061;49.068;12.058;2023-04-16T08:36:20;9.90;99.90
10042;DHT22;5061;49.068;12.058;2023-04-16T08:39:41;9.90;99.90
10042;DHT22;5061;49.068;12.058;2023-04-16T08:43:04;10.00;99.90
10042;DHT22;5061;49.068;12.058;2023-04-16T08:46:28;10.10;99.90
10042;DHT22;5061;49.068;12.058;2023-04-16T08:49:49;10.20;99.90
10042;DHT22;5061;49.068;12.058;2023-04-16T08:53:17;10.20;99.90
10042;DHT22;5061;49.068;12.058;2023-04-16T08:56:40;10.30;99.90
10042;DHT22;5061;49.068;12.058;2023-04-16T09:00:01;10.40;99.90
10042;DHT22;5061;49.068;12.058;2023-04-16T09:03:23;10.40;99.90
10042;DHT22;5061;49.068;12.058;2023-04-16T09:06:45;10.50;99.90
10042;DHT22;5061;49.068;12.058;2023-04-16T09:10:08;10.60;99.90
10042;DHT22;5061;49.068;12.058;2023-04-16T09:13:30;10.60;99.90
10042;DHT22;5061;49.068;12.058;2023-04-16T09:16:52;10.70;99.90
10042;DHT22;5061;49.068;12.058;2023-04-16T09:20:14;10.80;99.90
10042;DHT22;5061;49.068;12.058;2023-04-16T09:23:36;10.80;99.90
10042;DHT22;5061;49.068;12.058;2023-04-16T09:26:58;10.90;99.90
10042;DHT22;5061;49.068;12.058;2023-04-16T09:30:23;10.90;99.90
10042;DHT22;5061;49.068;12.058;2023-04-16T09:34:10;10.90;99.90
10042;DHT22;5061;49.068;12.058;2023-04-16T09:37:31;11.00;99.90
10042;DHT22;5061;49.068;12.058;2023-04-16T09:41:06;11.00;99.90
10042;DHT22;5061;49.068;12.058;2023-04-16T09:44:37;11.10;99.90
10042;DHT22;5061;49.068;12.058;2023-04-16T09:48:02;11.10;99.90
10042;DHT22;5061;49.068;12.058;2023-04-16T09:51:24;11.10;99.90
10042;DHT22;5061;49.068;12.058;2023-04-16T09:54:50;11.20;99.90
10042;DHT22;5061;49.068;12.058;2023-04-16T09:58:11;11.20;99.90
10042;DHT22;5061;49.068;12.058;2023-04-16T10:01:32;11.20;99.90
10042;DHT22;5061;49.068;12.058;2023-04-16T10:04:53;11.20;99.90
10042;DHT22;5061;49.068;12.058;2023-04-16T10:08:13;11.20;99.90
10042;DHT22;5061;49.068;12.058;2023-04-16T10:11:35;11.20;99.90
10042;DHT22;5061;49.068;12.058;2023-04-16T10:14:56;11.20;99.90
10042;DHT22;5061;49.068;12.058;2023-04-16T10:18:17;11.20;99.90
10042;DHT22;5061;49.068;12.058;2023-04-16T10:21:38;11.30;99.90
10042;DHT22;5061;49.068;12.058;2023-04-16T10:25:00;11.30;99.90
10042;DHT22;5061;49.068;12.058;2023-04-16T10:28:21;11.40;99.90
10042;DHT22;5061;49.068;12.058;2023-04-16T10:31:44;11.50;99.90
10042;DHT22;5061;49.068;12.058;2023-04-16T10:35:05;11.60;99.90
10042;DHT22;5061;49.068;12.058;2023-04-16T10:38:27;11.60;99.90
10042;DHT22;5061;49.068;12.058;2023-04-16T10:41:48;11.70;99.90
10042;DHT22;5061;49.068;12.058;2023-04-16T10:45:10;11.80;99.90
10042;DHT22;5061;49.068;12.058;2023-04-16T10:48:30;11.80;99.90
10042;DHT22;5061;49.068;12.058;2023-04-16T10:51:56;11.90;99.90
10042;DHT22;5061;49.068;12.058;2023-04-16T10:55:17;12.00;99.90
10042;DHT22;5061;49.068;12.058;2023-04-16T10:58:37;12.00;99.90
10042;DHT22;5061;49.068;12.058;2023-04-16T11:02:00;12.00;99.90
10042;DHT22;5061;49.068;12.058;2023-04-16T11:05:22;12.00;99.90
10042;DHT22;5061;49.068;12.058;2023-04-16T11:08:44;11.90;99.90
10042;DHT22;5061;49.068;12.058;2023-04-16T11:12:11;11.90;99.90
10042;DHT22;5061;49.068;12.058;2023-04-16T11:15:32;11.90;99.90
10042;DHT22;5061;49.068;12.058;2023-04-16T11:18:54;11.90;99.90
10042;DHT22;5061;49.068;12.058;2023-04-16T11:22:16;11.90;99.90
10042;DHT22;5061;49.068;12.058;2023-04-16T11:25:37;11.90;99.90
10042;DHT22;5061;49.068;12.058;2023-04-16T11:28:58;11.90;99.90
10042;DHT22;5061;49.068;12.058;2023-04-16T11:32:20;11.80;99.90
10042;DHT22;5061;49.068;12.058;2023-04-16T11:35:43;11.80;99.90
10042;DHT22;5061;49.068;12.058;2023-04-16T11:39:05;11.80;99.90
10042;DHT22;5061;49.068;12.058;2023-04-16T11:42:26;11.80;99.90
10042;DHT22;5061;49.068;12.058;2023-04-16T11:46:01;11.80;99.90
10042;DHT22;5061;49.068;12.058;2023-04-16T11:49:29;11.80;99.90
10042;DHT22;5061;49.068;12.058;2023-04-16T11:52:51;11.80;99.90
10042;DHT22;5061;49.068;12.058;2023-04-16T11:56:11;11.80;99.90
10042;DHT22;5061;49.068;12.058;2023-04-16T11:59:32;11.70;99.90
10042;DHT22;5061;49.068;12.058;2023-04-16T12:02:53;11.70;99.90
10042;DHT22;5061;49.068;12.058;2023-04-16T12:06:17;11.70;99.90
10042;DHT22;5061;49.068;12.058;2023-04-16T12:09:40;11.70;99.90
10042;DHT22;5061;49.068;12.058;2023-04-16T12:13:14;11.70;99.90
10042;DHT22;5061;49.068;12.058;2023-04-16T12:16:35;11.60;99.90
10042;DHT22;5061;49.068;12.058;2023-04-16T12:19:57;11.60;99.90
10042;DHT22;5061;49.068;12.058;2023-04-16T12:23:26;11.70;99.90
10042;DHT22;5061;49.068;12.058;2023-04-16T12:26:54;11.70;99.90
10042;DHT22;5061;49.068;12.058;2023-04-16T12:30:18;11.70;99.90
10042;DHT22;5061;49.068;12.058;2023-04-16T12:33:40;11.80;99.90
10042;DHT22;5061;49.068;12.058;2023-04-16T12:37:06;11.90;99.90
10042;DHT22;5061;49.068;12.058;2023-04-16T12:40:30;11.90;99.90
10042;DHT22;5061;49.068;12.058;2023-04-16T12:43:51;12.00;99.90
10042;DHT22;5061;49.068;12.058;2023-04-16T12:47:11;12.00;99.90
10042;DHT22;5061;49.068;12.058;2023-04-16T12:50:32;12.00;99.90
10042;DHT22;5061;49.068;12.058;2023-04-16T12:53:53;12.10;99.90
10042;DHT22;5061;49.068;12.058;2023-04-16T12:57:14;12.20;99.90
10042;DHT22;5061;49.068;12.058;2023-04-16T13:00:36;12.30;99.90
10042;DHT22;5061;49.068;12.058;2023-04-16T13:03:57;12.50;99.90
10042;DHT22;5061;49.068;12.058;2023-04-16T13:07:18;12.80;99.90
10042;DHT22;5061;49.068;12.058;2023-04-16T13:10:39;13.00;99.90
10042;DHT22;5061;49.068;12.058;2023-04-16T13:13:59;13.20;99.90
10042;DHT22;5061;49.068;12.058;2023-04-16T13:17:20;13.30;99.90
10042;DHT22;5061;49.068;12.058;2023-04-16T13:20:41;13.30;99.90
10042;DHT22;5061;49.068;12.058;2023-04-16T13:24:01;13.30;99.90
10042;DHT22;5061;49.068;12.058;2023-04-16T13:27:22;13.30;99.90
10042;DHT22;5061;49.068;12.058;2023-04-16T13:30:44;13.40;99.90
10042;DHT22;5061;49.068;12.058;2023-04-16T13:34:04;13.40;99.90
10042;DHT22;5061;49.068;12.058;2023-04-16T13:37:25;13.40;99.90
10042;DHT22;5061;49.068;12.058;2023-04-16T13:40:46;13.40;99.90
10042;DHT22;5061;49.068;12.058;2023-04-16T13:44:06;13.40;99.90
10042;DHT22;5061;49.068;12.058;2023-04-16T13:47:27;13.40;99.90
10042;DHT22;5061;49.068;12.058;2023-04-16T13:50:48;13.50;99.90
10042;DHT22;5061;49.068;12.058;2023-04-16T13:54:08;13.50;99.90
10042;DHT22;5061;49.068;12.058;2023-04-16T13:57:29;13.60;99.90
10042;DHT22;5061;49.068;12.058;2023-04-16T14:00:50;13.80;99.90
10042;DHT22;5061;49.068;12.058;2023-04-16T14:04:11;14.00;99.90
10042;DHT22;5061;49.068;12.058;2023-04-16T14:07:32;14.30;99.90
10042;DHT22;5061;49.068;12.058;2023-04-16T14:10:52;14.50;99.90
10042;DHT22;5061;49.068;12.058;2023-04-16T14:14:13;14.80;99.90
10042;DHT22;5061;49.068;12.058;2023-04-16T14:17:34;14.90;99.90
10042;DHT22;5061;49.068;12.058;2023-04-16T14:20:56;15.00;99.90
10042;DHT22;5061;49.068;12.058;2023-04-16T14:24:17;15.10;99.90
10042;DHT22;5061;49.068;12.058;2023-04-16T14:27:38;15.00;99.90
10042;DHT22;5061;49.068;12.058;2023-04-16T14:30:59;14.90;99.90
10042;DHT22;5061;49.068;12.058;2023-04-16T14:34:19;14.80;99.90
10042;DHT22;5061;49.068;12.058;2023-04-16T14:37:40;14.70;99.90
10042;DHT22;5061;49.068;12.058;2023-04-16T14:41:01;14.60;99.90
10042;DHT22;5061;49.068;12.058;2023-04-16T14:44:22;14.40;99.90
10042;DHT22;5061;49.068;12.058;2023-04-16T14:47:42;14.20;99.90
10042;DHT22;5061;49.068;12.058;2023-04-16T14:51:07;14.00;99.90
10042;DHT22;5061;49.068;12.058;2023-04-16T14:54:28;13.80;99.90
10042;DHT22;5061;49.068;12.058;2023-04-16T14:57:49;13.50;99.90
10042;DHT22;5061;49.068;12.058;2023-04-16T15:01:09;13.20;99.90
10042;DHT22;5061;49.068;12.058;2023-04-16T15:04:30;13.00;99.90
10042;DHT22;5061;49.068;12.058;2023-04-16T15:07:51;12.70;99.90
10042;DHT22;5061;49.068;12.058;2023-04-16T15:11:11;12.50;99.90
10042;DHT22;5061;49.068;12.058;2023-04-16T15:14:32;12.30;99.90
10042;DHT22;5061;49.068;12.058;2023-04-16T15:17:53;12.10;99.90
10042;DHT22;5061;49.068;12.058;2023-04-16T15:21:13;12.10;99.90
10042;DHT22;5061;49.068;12.058;2023-04-16T15:24:34;11.90;99.90
10042;DHT22;5061;49.068;12.058;2023-04-16T15:27:55;11.80;99.90
10042;DHT22;5061;49.068;12.058;2023-04-16T15:31:15;11.60;99.90
10042;DHT22;5061;49.068;12.058;2023-04-16T15:34:36;11.50;99.90
10042;DHT22;5061;49.068;12.058;2023-04-16T15:38:00;11.40;99.90
10042;DHT22;5061;49.068;12.058;2023-04-16T15:41:20;11.30;99.90
10042;DHT22;5061;49.068;12.058;2023-04-16T15:44:41;11.30;99.90
10042;DHT22;5061;49.068;12.058;2023-04-16T15:48:02;11.20;99.90
10042;DHT22;5061;49.068;12.058;2023-04-16T15:51:25;11.20;99.90
10042;DHT22;5061;49.068;12.058;2023-04-16T15:54:46;11.20;99.90
10042;DHT22;5061;49.068;12.058;2023-04-16T15:58:06;11.20;99.90
10042;DHT22;5061;49.068;12.058;2023-04-16T16:01:27;11.20;99.90
10042;DHT22;5061;49.068;12.058;2023-04-16T16:04:47;11.20;99.90
10042;DHT22;5061;49.068;12.058;2023-04-16T16:08:09;11.20;99.90
10042;DHT22;5061;49.068;12.058;2023-04-16T16:11:30;11.30;99.90
10042;DHT22;5061;49.068;12.058;2023-04-16T16:14:51;11.30;99.90
10042;DHT22;5061;49.068;12.058;2023-04-16T16:18:12;11.30;99.90
10042;DHT22;5061;49.068;12.058;2023-04-16T16:21:33;11.30;99.90
10042;DHT22;5061;49.068;12.058;2023-04-16T16:24:54;11.30;99.90
10042;DHT22;5061;49.068;12.058;2023-04-16T16:28:17;11.20;99.90
10042;DHT22;5061;49.068;12.058;2023-04-16T16:31:37;11.20;99.90
10042;DHT22;5061;49.068;12.058;2023-04-16T16:35:11;11.20;99.90
10042;DHT22;5061;49.068;12.058;2023-04-16T16:38:33;11.20;99.90
10042;DHT22;5061;49.068;12.058;2023-04-16T16:41:54;11.20;99.90
10042;DHT22;5061;49.068;12.058;2023-04-16T16:45:16;11.20;99.90
10042;DHT22;5061;49.068;12.058;2023-04-16T16:48:37;11.20;99.90
10042;DHT22;5061;49.068;12.058;2023-04-16T16:51:57;11.20;99.90
10042;DHT22;5061;49.068;12.058;2023-04-16T16:55:21;11.20;99.90
10042;DHT22;5061;49.068;12.058;2023-04-16T16:58:44;11.10;99.90
10042;DHT22;5061;49.068;12.058;2023-04-16T17:02:05;11.10;99.90
10042;DHT22;5061;49.068;12.058;2023-04-16T17:05:26;11.10;99.90
10042;DHT22;5061;49.068;12.058;2023-04-16T17:08:47;11.00;99.90
10042;DHT22;5061;49.068;12.058;2023-04-16T17:12:08;11.00;99.90
10042;DHT22;5061;49.068;12.058;2023-04-16T17:15:29;11.00;99.90
10042;DHT22;5061;49.068;12.058;2023-04-16T17:18:49;10.90;99.90
10042;DHT22;5061;49.068;12.058;2023-04-16T17:22:10;10.90;99.90
10042;DHT22;5061;49.068;12.058;2023-04-16T17:25:31;10.80;99.90
10042;DHT22;5061;49.068;12.058;2023-04-16T17:28:52;10.80;99.90
10042;DHT22;5061;49.068;12.058;2023-04-16T17:32:13;10.70;99.90
10042;DHT22;5061;49.068;12.058;2023-04-16T17:35:34;10.60;99.90
10042;DHT22;5061;49.068;12.058;2023-04-16T17:38:56;10.60;99.90
10042;DHT22;5061;49.068;12.058;2023-04-16T17:42:18;10.50;99.90
10042;DHT22;5061;49.068;12.058;2023-04-16T17:45:42;10.40;99.90
10042;DHT22;5061;49.068;12.058;2023-04-16T17:49:03;10.30;99.90
10042;DHT22;5061;49.068;12.058;2023-04-16T17:52:25;10.30;99.90
10042;DHT22;5061;49.068;12.058;2023-04-16T17:55:53;10.20;99.90
10042;DHT22;5061;49.068;12.058;2023-04-16T17:59:14;10.10;99.90
10042;DHT22;5061;49.068;12.058;2023-04-16T18:02:34;10.00;99.90
10042;DHT22;5061;49.068;12.058;2023-04-16T18:05:57;10.00;99.90
10042;DHT22;5061;49.068;12.058;2023-04-16T18:09:19;9.90;99.90
10042;DHT22;5061;49.068;12.058;2023-04-16T18:12:40;9.80;99.90
10042;DHT22;5061;49.068;12.058;2023-04-16T18:16:01;9.70;99.90
10042;DHT22;5061;49.068;12.058;2023-04-16T18:19:22;9.70;99.90
10042;DHT22;5061;49.068;12.058;2023-04-16T18:22:44;9.70;99.90
10042;DHT22;5061;49.068;12.058;2023-04-16T18:26:08;9.60;99.90
10042;DHT22;5061;49.068;12.058;2023-04-16T18:29:29;9.50;99.90
10042;DHT22;5061;49.068;12.058;2023-04-16T18:32:49;9.50;99.90
10042;DHT22;5061;49.068;12.058;2023-04-16T18:36:10;9.50;99.90
10042;DHT22;5061;49.068;12.058;2023-04-16T18:39:34;9.50;99.90
10042;DHT22;5061;49.068;12.058;2023-04-16T18:42:56;9.50;99.90
10042;DHT22;5061;49.068;12.058;2023-04-16T18:46:18;9.50;99.90
10042;DHT22;5061;49.068;12.058;2023-04-16T18:49:39;9.50;99.90
10042;DHT22;5061;49.068;12.058;2023-04-16T18:52:59;9.50;99.90
10042;DHT22;5061;49.068;12.058;2023-04-16T18:56:21;9.40;99.90
10042;DHT22;5061;49.068;12.058;2023-04-16T18:59:42;9.40;99.90
10042;DHT22;5061;49.068;12.058;2023-04-16T19:03:06;9.30;99.90
10042;DHT22;5061;49.068;12.058;2023-04-16T19:06:26;9.20;99.90
10042;DHT22;5061;49.068;12.058;2023-04-16T19:09:48;9.20;99.90
10042;DHT22;5061;49.068;12.058;2023-04-16T19:13:09;9.20;99.90
10042;DHT22;5061;49.068;12.058;2023-04-16T19:16:30;9.10;99.90
10042;DHT22;5061;49.068;12.058;2023-04-16T19:19:51;9.10;99.90
10042;DHT22;5061;49.068;12.058;2023-04-16T19:23:12;9.10;99.90
10042;DHT22;5061;49.068;12.058;2023-04-16T19:26:36;9.20;99.90
10042;DHT22;5061;49.068;12.058;2023-04-16T19:29:58;9.20;99.90
10042;DHT22;5061;49.068;12.058;2023-04-16T19:33:23;9.20;99.90
10042;DHT22;5061;49.068;12.058;2023-04-16T19:36:47;9.20;99.90
10042;DHT22;5061;49.068;12.058;2023-04-16T19:40:11;9.20;99.90
10042;DHT22;5061;49.068;12.058;2023-04-16T19:43:32;9.20;99.90
10042;DHT22;5061;49.068;12.058;2023-04-16T19:46:54;9.20;99.90
10042;DHT22;5061;49.068;12.058;2023-04-16T19:50:16;9.20;99.90
10042;DHT22;5061;49.068;12.058;2023-04-16T19:53:40;9.20;99.90
10042;DHT22;5061;49.068;12.058;2023-04-16T19:57:02;9.20;99.90
10042;DHT22;5061;49.068;12.058;2023-04-16T20:00:23;9.20;99.90
10042;DHT22;5061;49.068;12.058;2023-04-16T20:03:45;9.20;99.90
10042;DHT22;5061;49.068;12.058;2023-04-16T20:07:06;9.20;99.90
10042;DHT22;5061;49.068;12.058;2023-04-16T20:10:27;9.20;99.90
10042;DHT22;5061;49.068;12.058;2023-04-16T20:13:48;9.20;99.90
10042;DHT22;5061;49.068;12.058;2023-04-16T20:17:09;9.20;99.90
10042;DHT22;5061;49.068;12.058;2023-04-16T20:20:36;9.10;99.90
10042;DHT22;5061;49.068;12.058;2023-04-16T20:24:00;9.10;99.90
10042;DHT22;5061;49.068;12.058;2023-04-16T20:27:21;9.00;99.90
10042;DHT22;5061;49.068;12.058;2023-04-16T20:30:41;9.00;99.90
10042;DHT22;5061;49.068;12.058;2023-04-16T20:34:02;9.00;99.90
10042;DHT22;5061;49.068;12.058;2023-04-16T20:37:28;9.00;99.90
10042;DHT22;5061;49.068;12.058;2023-04-16T20:40:51;9.00;99.90
10042;DHT22;5061;49.068;12.058;2023-04-16T20:44:31;9.00;99.90
10042;DHT22;5061;49.068;12.058;2023-04-16T20:47:52;9.00;99.90
10042;DHT22;5061;49.068;12.058;2023-04-16T20:51:16;9.00;99.90
10042;DHT22;5061;49.068;12.058;2023-04-16T20:54:37;9.00;99.90
10042;DHT22;5061;49.068;12.058;2023-04-16T20:58:00;9.00;99.90
10042;DHT22;5061;49.068;12.058;2023-04-16T21:01:23;8.90;99.90
10042;DHT22;5061;49.068;12.058;2023-04-16T21:04:46;8.90;99.90
10042;DHT22;5061;49.068;12.058;2023-04-16T21:08:07;9.00;99.90
10042;DHT22;5061;49.068;12.058;2023-04-16T21:11:28;8.90;99.90
10042;DHT22;5061;49.068;12.058;2023-04-16T21:14:52;8.90;99.90
10042;DHT22;5061;49.068;12.058;2023-04-16T21:18:13;8.90;99.90
10042;DHT22;5061;49.068;12.058;2023-04-16T21:21:34;8.90;99.90
10042;DHT22;5061;49.068;12.058;2023-04-16T21:24:55;8.90;99.90